sensor_id;sensor_type;location;lat;lon;timestamp;temperature;humidity
21244;DHT22;10780;50.942;4.028;2023-06-14T00:00:33;20.90;99.90
21244;DHT22;10780;50.942;4.028;2023-06-14T00:03:00;20.80;99.90
21244;DHT22;10780;50.942;4.028;2023-06-14T00:05:25;20.80;99.90
21244;DHT22;10780;50.942;4.028;2023-06-14T00:07:51;20.70;99.90
21244;DHT22;10780;50.942;4.028;2023-06-14T00:10:19;20.60;99.90
21244;DHT22;10780;50.942;4.028;2023-06-14T00:12:45;20.60;99.90
21244;DHT22;10780;50.942;4.028;2023-06-14T00:15:10;20.70;99.90
21244;DHT22;10780;50.942;4.028;2023-06-14T00:17:36;20.60;99.90
21244;DHT22;10780;50.942;4.028;2023-06-14T00:20:05;20.50;99.90
21244;DHT22;10780;50.942;4.028;2023-06-14T00:22:33;20.50;99.90
21244;DHT22;10780;50.942;4.028;2023-06-14T00:24:59;20.30;99.90
21244;DHT22;10780;50.942;4.028;2023-06-14T00:27:25;20.20;99.90
21244;DHT22;10780;50.942;4.028;2023-06-14T00:29:51;20.20;99.90
21244;DHT22;10780;50.942;4.028;2023-06-14T00:32:18;20.10;99.90
21244;DHT22;10780;50.942;4.028;2023-06-14T00:34:44;20.00;99.90
21244;DHT22;10780;50.942;4.028;2023-06-14T00:37:09;19.90;99.90
21244;DHT22;10780;50.942;4.028;2023-06-14T00:39:35;20.00;99.90
21244;DHT22;10780;50.942;4.028;2023-06-14T00:42:00;20.00;99.90
21244;DHT22;10780;50.942;4.028;2023-06-14T00:44:26;20.10;99.90
21244;DHT22;10780;50.942;4.028;2023-06-14T00:46:52;20.10;99.90
21244;DHT22;10780;50.942;4.028;2023-06-14T00:49:18;20.00;99.90
21244;DHT22;10780;50.942;4.028;2023-06-14T00:51:45;20.00;99.90
21244;DHT22;10780;50.942;4.028;2023-06-14T00:54:10;19.90;99.90
21244;DHT22;10780;50.942;4.028;2023-06-14T00:56:36;19.90;99.90
21244;DHT22;10780;50.942;4.028;2023-06-14T00:59:03;19.90;99.90
21244;DHT22;10780;50.942;4.028;2023-06-14T01:01:30;19.80;99.90
21244;DHT22;10780;50.942;4.028;2023-06-14T01:03:58;19.70;99.90
21244;DHT22;10780;50.942;4.028;2023-06-14T01:12:08;20.00;99.90
21244;DHT22;10780;50.942;4.028;2023-06-14T01:14:36;19.90;99.90
21244;DHT22;10780;50.942;4.028;2023-06-14T01:17:03;19.80;99.90
21244;DHT22;10780;50.942;4.028;2023-06-14T01:19:30;19.80;99.90
21244;DHT22;10780;50.942;4.028;2023-06-14T01:21:57;19.80;99.90
21244;DHT22;10780;50.942;4.028;2023-06-14T01:24:24;19.70;99.90
21244;DHT22;10780;50.942;4.028;2023-06-14T01:26:53;19.60;99.90
21244;DHT22;10780;50.942;4.028;2023-06-14T01:29:23;19.60;99.90
21244;DHT22;10780;50.942;4.028;2023-06-14T01:31:49;19.60;99.90
21244;DHT22;10780;50.942;4.028;2023-06-14T01:34:15;19.60;99.90
21244;DHT22;10780;50.942;4.028;2023-06-14T01:36:43;19.60;99.90
21244;DHT22;10780;50.942;4.028;2023-06-14T01:39:12;19.50;99.90
21244;DHT22;10780;50.942;4.028;2023-06-14T01:41:40;19.60;99.90
21244;DHT22;10780;50.942;4.028;2023-06-14T01:44:06;19.50;99.90
21244;DHT22;10780;50.942;4.028;2023-06-14T01:46:32;19.50;99.90
21244;DHT22;10780;50.942;4.028;2023-06-14T01:48:59;19.60;99.90
21244;DHT22;10780;50.942;4.028;2023-06-14T01:51:25;19.70;99.90
21244;DHT22;10780;50.942;4.028;2023-06-14T01:53:51;19.80;99.90
21244;DHT22;10780;50.942;4.028;2023-06-14T01:56:16;19.80;99.90
21244;DHT22;10780;50.942;4.028;2023-06-14T01:58:42;19.80;99.90
21244;DHT22;10780;50.942;4.028;2023-06-14T02:01:08;19.80;99.90
21244;DHT22;10780;50.942;4.028;2023-06-14T02:03:34;19.80;99.90
21244;DHT22;10780;50.942;4.028;2023-06-14T02:06:00;19.90;99.90
21244;DHT22;10780;50.942;4.028;2023-06-14T02:08:26;19.80;99.90
21244;DHT22;10780;50.942;4.028;2023-06-14T02:10:52;19.70;99.90
21244;DHT22;10780;50.942;4.028;2023-06-14T02:13:17;19.60;99.90
21244;DHT22;10780;50.942;4.028;2023-06-14T02:15:43;19.50;99.90
21244;DHT22;10780;50.942;4.028;2023-06-14T02:18:09;19.40;99.90
21244;DHT22;10780;50.942;4.028;2023-06-14T02:20:35;19.50;99.90
21244;DHT22;10780;50.942;4.028;2023-06-14T02:23:01;19.60;99.90
21244;DHT22;10780;50.942;4.028;2023-06-14T02:25:27;19.60;99.90
21244;DHT22;10780;50.942;4.028;2023-06-14T02:27:55;19.50;99.90
21244;DHT22;10780;50.942;4.028;2023-06-14T02:30:21;19.40;99.90
21244;DHT22;10780;50.942;4.028;2023-06-14T02:32:47;19.30;99.90
21244;DHT22;10780;50.942;4.028;2023-06-14T02:35:14;19.10;99.90
21244;DHT22;10780;50.942;4.028;2023-06-14T02:37:39;19.00;99.90
21244;DHT22;10780;50.942;4.028;2023-06-14T02:40:06;19.00;99.90
21244;DHT22;10780;50.942;4.028;2023-06-14T02:42:31;18.90;99.90
21244;DHT22;10780;50.942;4.028;2023-06-14T02:44:57;18.90;99.90
21244;DHT22;10780;50.942;4.028;2023-06-14T02:47:23;18.90;99.90
21244;DHT22;10780;50.942;4.028;2023-06-14T02:49:49;18.90;99.90
21244;DHT22;10780;50.942;4.028;2023-06-14T02:52:15;18.90;99.90
21244;DHT22;10780;50.942;4.028;2023-06-14T02:54:41;18.90;99.90
21244;DHT22;10780;50.942;4.028;2023-06-14T02:57:08;18.90;99.90
21244;DHT22;10780;50.942;4.028;2023-06-14T02:59:34;19.10;99.90
21244;DHT22;10780;50.942;4.028;2023-06-14T03:02:00;19.10;99.90
21244;DHT22;10780;50.942;4.028;2023-06-14T03:04:26;19.20;99.90
21244;DHT22;10780;50.942;4.028;2023-06-14T03:06:52;19.20;99.90
21244;DHT22;10780;50.942;4.028;2023-06-14T03:09:19;19.20;99.90
21244;DHT22;10780;50.942;4.028;2023-06-14T03:11:45;19.20;99.90
21244;DHT22;10780;50.942;4.028;2023-06-14T03:14:11;19.20;99.90
21244;DHT22;10780;50.942;4.028;2023-06-14T03:16:37;19.20;99.90
21244;DHT22;10780;50.942;4.028;2023-06-14T03:19:02;19.20;99.90
21244;DHT22;10780;50.942;4.028;2023-06-14T03:21:28;19.10;99.90
21244;DHT22;10780;50.942;4.028;2023-06-14T03:23:54;19.00;99.90
21244;DHT22;10780;50.942;4.028;2023-06-14T03:26:20;19.00;99.90
21244;DHT22;10780;50.942;4.028;2023-06-14T03:28:46;19.00;99.90
21244;DHT22;10780;50.942;4.028;2023-06-14T03:31:12;18.80;99.90
21244;DHT22;10780;50.942;4.028;2023-06-14T03:33:38;19.00;99.90
21244;DHT22;10780;50.942;4.028;2023-06-14T03:36:05;19.00;99.90
21244;DHT22;10780;50.942;4.028;2023-06-14T03:38:31;19.10;99.90
21244;DHT22;10780;50.942;4.028;2023-06-14T03:40:56;19.10;99.90
21244;DHT22;10780;50.942;4.028;2023-06-14T03:43:22;19.00;99.90
21244;DHT22;10780;50.942;4.028;2023-06-14T03:45:48;19.00;99.90
21244;DHT22;10780;50.942;4.028;2023-06-14T03:48:13;19.00;99.90
21244;DHT22;10780;50.942;4.028;2023-06-14T03:50:39;19.00;99.90
21244;DHT22;10780;50.942;4.028;2023-06-14T03:53:06;19.10;99.90
21244;DHT22;10780;50.942;4.028;2023-06-14T03:55:32;19.00;99.90
21244;DHT22;10780;50.942;4.028;2023-06-14T03:57:58;19.10;99.90
21244;DHT22;10780;50.942;4.028;2023-06-14T04:00:24;19.00;99.90
21244;DHT22;10780;50.942;4.028;2023-06-14T04:02:50;19.00;99.90
21244;DHT22;10780;50.942;4.028;2023-06-14T04:05:16;19.00;99.90
21244;DHT22;10780;50.942;4.028;2023-06-14T04:07:45;19.10;99.90
21244;DHT22;10780;50.942;4.028;2023-06-14T04:10:12;19.20;99.90
21244;DHT22;10780;50.942;4.028;2023-06-14T04:12:38;19.10;99.90
21244;DHT22;10780;50.942;4.028;2023-06-14T04:15:04;19.10;99.90
21244;DHT22;10780;50.942;4.028;2023-06-14T04:17:34;19.20;99.90
21244;DHT22;10780;50.942;4.028;2023-06-14T04:20:00;19.20;99.90
21244;DHT22;10780;50.942;4.028;2023-06-14T04:22:27;19.20;99.90
21244;DHT22;10780;50.942;4.028;2023-06-14T04:24:55;19.30;99.90
21244;DHT22;10780;50.942;4.028;2023-06-14T04:27:25;19.30;99.90
21244;DHT22;10780;50.942;4.028;2023-06-14T04:29:55;19.50;99.90
21244;DHT22;10780;50.942;4.028;2023-06-14T04:32:25;19.50;99.90
21244;DHT22;10780;50.942;4.028;2023-06-14T04:34:53;19.50;99.90
21244;DHT22;10780;50.942;4.028;2023-06-14T04:37:20;19.50;99.90
21244;DHT22;10780;50.942;4.028;2023-06-14T04:39:47;19.60;99.90
21244;DHT22;10780;50.942;4.028;2023-06-14T04:42:13;19.70;99.90
21244;DHT22;10780;50.942;4.028;2023-06-14T04:44:40;19.70;99.90
21244;DHT22;10780;50.942;4.028;2023-06-14T04:47:06;19.70;99.90
21244;DHT22;10780;50.942;4.028;2023-06-14T04:49:32;19.60;99.90
21244;DHT22;10780;50.942;4.028;2023-06-14T04:51:59;19.70;99.90
21244;DHT22;10780;50.942;4.028;2023-06-14T04:54:27;19.80;99.90
21244;DHT22;10780;50.942;4.028;2023-06-14T04:56:53;19.90;99.90
21244;DHT22;10780;50.942;4.028;2023-06-14T04:59:21;19.80;99.90
21244;DHT22;10780;50.942;4.028;2023-06-14T05:01:49;19.80;99.90
21244;DHT22;10780;50.942;4.028;2023-06-14T05:04:16;19.90;99.90
21244;DHT22;10780;50.942;4.028;2023-06-14T05:06:42;20.00;99.90
21244;DHT22;10780;50.942;4.028;2023-06-14T05:09:13;20.00;99.90
21244;DHT22;10780;50.942;4.028;2023-06-14T05:11:39;20.10;99.90
21244;DHT22;10780;50.942;4.028;2023-06-14T05:14:05;20.00;99.90
21244;DHT22;10780;50.942;4.028;2023-06-14T05:16:31;20.00;99.90
21244;DHT22;10780;50.942;4.028;2023-06-14T05:18:57;20.10;99.90
21244;DHT22;10780;50.942;4.028;2023-06-14T05:21:23;20.10;99.90
21244;DHT22;10780;50.942;4.028;2023-06-14T05:23:49;20.20;99.90
21244;DHT22;10780;50.942;4.028;2023-06-14T05:26:16;20.10;99.90
21244;DHT22;10780;50.942;4.028;2023-06-14T05:28:41;20.10;99.90
21244;DHT22;10780;50.942;4.028;2023-06-14T05:31:07;20.20;99.90
21244;DHT22;10780;50.942;4.028;2023-06-14T05:33:32;20.30;99.90
21244;DHT22;10780;50.942;4.028;2023-06-14T05:35:58;20.30;99.90
21244;DHT22;10780;50.942;4.028;2023-06-14T05:38:24;20.40;99.90
21244;DHT22;10780;50.942;4.028;2023-06-14T05:40:50;20.60;99.90
21244;DHT22;10780;50.942;4.028;2023-06-14T05:43:16;20.80;99.90
21244;DHT22;10780;50.942;4.028;2023-06-14T05:45:42;20.90;99.90
21244;DHT22;10780;50.942;4.028;2023-06-14T05:48:07;21.10;99.90
21244;DHT22;10780;50.942;4.028;2023-06-14T05:50:33;21.10;99.90
21244;DHT22;10780;50.942;4.028;2023-06-14T05:52:59;21.20;99.90
21244;DHT22;10780;50.942;4.028;2023-06-14T05:55:24;21.30;99.90
21244;DHT22;10780;50.942;4.028;2023-06-14T05:57:50;21.40;99.90
21244;DHT22;10780;50.942;4.028;2023-06-14T06:00:16;21.40;99.90
21244;DHT22;10780;50.942;4.028;2023-06-14T06:02:43;21.50;99.90
21244;DHT22;10780;50.942;4.028;2023-06-14T06:05:13;21.50;99.90
21244;DHT22;10780;50.942;4.028;2023-06-14T06:07:39;21.60;99.90
21244;DHT22;10780;50.942;4.028;2023-06-14T06:10:10;21.60;99.90
21244;DHT22;10780;50.942;4.028;2023-06-14T06:12:36;21.70;99.90
21244;DHT22;10780;50.942;4.028;2023-06-14T06:15:02;21.80;99.90
21244;DHT22;10780;50.942;4.028;2023-06-14T06:17:29;21.90;99.90
21244;DHT22;10780;50.942;4.028;2023-06-14T06:19:55;22.10;99.90
21244;DHT22;10780;50.942;4.028;2023-06-14T06:22:21;22.30;99.90
21244;DHT22;10780;50.942;4.028;2023-06-14T06:24:47;22.30;99.90
21244;DHT22;10780;50.942;4.028;2023-06-14T06:27:14;22.30;99.90
21244;DHT22;10780;50.942;4.028;2023-06-14T06:29:41;22.40;99.90
21244;DHT22;10780;50.942;4.028;2023-06-14T06:32:07;22.50;99.90
21244;DHT22;10780;50.942;4.028;2023-06-14T06:34:33;22.60;99.90
21244;DHT22;10780;50.942;4.028;2023-06-14T06:36:59;22.80;99.90
21244;DHT22;10780;50.942;4.028;2023-06-14T06:39:26;22.90;99.90
21244;DHT22;10780;50.942;4.028;2023-06-14T06:41:52;23.00;99.90
21244;DHT22;10780;50.942;4.028;2023-06-14T06:44:18;22.90;99.90
21244;DHT22;10780;50.942;4.028;2023-06-14T06:46:44;22.90;99.90
21244;DHT22;10780;50.942;4.028;2023-06-14T06:49:10;22.90;99.90
21244;DHT22;10780;50.942;4.028;2023-06-14T06:51:40;23.10;99.90
21244;DHT22;10780;50.942;4.028;2023-06-14T06:54:07;23.30;99.90
21244;DHT22;10780;50.942;4.028;2023-06-14T06:56:34;23.20;99.90
21244;DHT22;10780;50.942;4.028;2023-06-14T06:59:00;23.10;99.90
21244;DHT22;10780;50.942;4.028;2023-06-14T07:01:26;23.10;99.90
21244;DHT22;10780;50.942;4.028;2023-06-14T07:03:55;22.90;99.90
21244;DHT22;10780;50.942;4.028;2023-06-14T07:06:21;22.80;99.90
21244;DHT22;10780;50.942;4.028;2023-06-14T07:08:47;22.90;99.90
21244;DHT22;10780;50.942;4.028;2023-06-14T07:11:16;23.10;99.90
21244;DHT22;10780;50.942;4.028;2023-06-14T07:13:41;23.30;99.90
21244;DHT22;10780;50.942;4.028;2023-06-14T07:16:07;23.40;99.90
21244;DHT22;10780;50.942;4.028;2023-06-14T07:18:33;23.70;99.90
21244;DHT22;10780;50.942;4.028;2023-06-14T07:20:59;23.70;99.90
21244;DHT22;10780;50.942;4.028;2023-06-14T07:23:24;23.70;99.90
21244;DHT22;10780;50.942;4.028;2023-06-14T07:25:51;23.90;99.90
21244;DHT22;10780;50.942;4.028;2023-06-14T07:28:17;23.90;99.90
21244;DHT22;10780;50.942;4.028;2023-06-14T07:30:44;23.90;99.90
21244;DHT22;10780;50.942;4.028;2023-06-14T07:33:10;24.10;99.90
21244;DHT22;10780;50.942;4.028;2023-06-14T07:35:37;24.10;99.90
21244;DHT22;10780;50.942;4.028;2023-06-14T07:38:03;24.10;99.90
21244;DHT22;10780;50.942;4.028;2023-06-14T07:40:28;24.30;99.90
21244;DHT22;10780;50.942;4.028;2023-06-14T07:42:54;24.60;99.90
21244;DHT22;10780;50.942;4.028;2023-06-14T07:45:20;24.60;99.90
21244;DHT22;10780;50.942;4.028;2023-06-14T07:47:46;24.50;99.90
21244;DHT22;10780;50.942;4.028;2023-06-14T07:50:12;24.50;99.90
21244;DHT22;10780;50.942;4.028;2023-06-14T07:52:39;24.60;99.90
21244;DHT22;10780;50.942;4.028;2023-06-14T07:55:05;24.70;99.90
21244;DHT22;10780;50.942;4.028;2023-06-14T07:57:31;24.90;99.90
21244;DHT22;10780;50.942;4.028;2023-06-14T07:59:57;25.10;99.90
21244;DHT22;10780;50.942;4.028;2023-06-14T08:02:22;25.40;99.90
21244;DHT22;10780;50.942;4.028;2023-06-14T08:04:48;25.40;99.90
21244;DHT22;10780;50.942;4.028;2023-06-14T08:07:14;25.50;99.90
21244;DHT22;10780;50.942;4.028;2023-06-14T08:09:40;25.50;99.90
21244;DHT22;10780;50.942;4.028;2023-06-14T08:12:07;25.60;99.90
21244;DHT22;10780;50.942;4.028;2023-06-14T08:14:35;25.50;99.90
21244;DHT22;10780;50.942;4.028;2023-06-14T08:17:02;25.30;99.90
21244;DHT22;10780;50.942;4.028;2023-06-14T08:19:28;25.20;99.90
21244;DHT22;10780;50.942;4.028;2023-06-14T08:21:55;25.20;99.90
21244;DHT22;10780;50.942;4.028;2023-06-14T08:24:21;25.30;99.90
21244;DHT22;10780;50.942;4.028;2023-06-14T08:26:50;25.60;99.90
21244;DHT22;10780;50.942;4.028;2023-06-14T08:29:15;25.60;99.90
21244;DHT22;10780;50.942;4.028;2023-06-14T08:31:41;25.70;99.90
21244;DHT22;10780;50.942;4.028;2023-06-14T08:34:07;25.70;99.90
21244;DHT22;10780;50.942;4.028;2023-06-14T08:36:32;25.70;99.90
21244;DHT22;10780;50.942;4.028;2023-06-14T08:38:58;25.70;99.90
21244;DHT22;10780;50.942;4.028;2023-06-14T08:41:24;25.90;99.90
21244;DHT22;10780;50.942;4.028;2023-06-14T08:43:50;26.00;99.90
21244;DHT22;10780;50.942;4.028;2023-06-14T08:46:18;26.00;99.90
21244;DHT22;10780;50.942;4.028;2023-06-14T08:48:47;26.10;99.90
21244;DHT22;10780;50.942;4.028;2023-06-14T08:51:18;26.20;99.90
21244;DHT22;10780;50.942;4.028;2023-06-14T08:53:44;26.20;99.90
21244;DHT22;10780;50.942;4.028;2023-06-14T08:56:11;26.20;99.90
21244;DHT22;10780;50.942;4.028;2023-06-14T08:58:44;26.20;99.90
21244;DHT22;10780;50.942;4.028;2023-06-14T09:01:11;26.40;99.90
21244;DHT22;10780;50.942;4.028;2023-06-14T09:03:42;26.20;99.90
21244;DHT22;10780;50.942;4.028;2023-06-14T09:06:08;26.30;99.90
21244;DHT22;10780;50.942;4.028;2023-06-14T09:08:40;26.40;99.90
21244;DHT22;10780;50.942;4.028;2023-06-14T09:11:14;26.50;99.90
21244;DHT22;10780;50.942;4.028;2023-06-14T09:13:41;26.40;99.90
21244;DHT22;10780;50.942;4.028;2023-06-14T09:16:08;26.20;99.90
21244;DHT22;10780;50.942;4.028;2023-06-14T09:18:45;26.20;99.90
21244;DHT22;10780;50.942;4.028;2023-06-14T09:21:13;26.10;99.90
21244;DHT22;10780;50.942;4.028;2023-06-14T09:23:41;26.10;99.90
21244;DHT22;10780;50.942;4.028;2023-06-14T09:26:13;26.30;99.90
21244;DHT22;10780;50.942;4.028;2023-06-14T09:28:47;26.40;99.90
21244;DHT22;10780;50.942;4.028;2023-06-14T09:31:14;26.50;99.90
21244;DHT22;10780;50.942;4.028;2023-06-14T09:34:02;26.30;99.90
21244;DHT22;10780;50.942;4.028;2023-06-14T09:36:27;26.40;99.90
21244;DHT22;10780;50.942;4.028;2023-06-14T09:38:58;26.60;99.90
21244;DHT22;10780;50.942;4.028;2023-06-14T09:41:33;26.70;99.90
21244;DHT22;10780;50.942;4.028;2023-06-14T09:44:00;26.70;99.90
21244;DHT22;10780;50.942;4.028;2023-06-14T09:46:28;26.80;99.90
21244;DHT22;10780;50.942;4.028;2023-06-14T09:48:58;27.00;99.90
21244;DHT22;10780;50.942;4.028;2023-06-14T09:51:25;27.10;99.90
21244;DHT22;10780;50.942;4.028;2023-06-14T09:53:52;27.20;99.90
21244;DHT22;10780;50.942;4.028;2023-06-14T09:56:26;27.20;99.90
21244;DHT22;10780;50.942;4.028;2023-06-14T09:58:55;27.20;99.90
21244;DHT22;10780;50.942;4.028;2023-06-14T10:01:24;27.10;99.90
21244;DHT22;10780;50.942;4.028;2023-06-14T10:03:55;27.00;99.90
21244;DHT22;10780;50.942;4.028;2023-06-14T10:06:26;27.00;99.90
21244;DHT22;10780;50.942;4.028;2023-06-14T10:08:55;26.90;99.90
21244;DHT22;10780;50.942;4.028;2023-06-14T10:11:21;26.80;99.90
21244;DHT22;10780;50.942;4.028;2023-06-14T10:13:47;26.70;99.90
21244;DHT22;10780;50.942;4.028;2023-06-14T10:16:36;26.70;99.90
21244;DHT22;10780;50.942;4.028;2023-06-14T10:24:46;26.90;99.90
21244;DHT22;10780;50.942;4.028;2023-06-14T10:27:14;26.80;99.90
21244;DHT22;10780;50.942;4.028;2023-06-14T10:32:18;26.80;99.90
21244;DHT22;10780;50.942;4.028;2023-06-14T10:34:44;26.90;99.90
21244;DHT22;10780;50.942;4.028;2023-06-14T10:37:14;27.20;99.90
21244;DHT22;10780;50.942;4.028;2023-06-14T10:39:44;27.20;99.90
21244;DHT22;10780;50.942;4.028;2023-06-14T10:42:14;27.10;99.90
21244;DHT22;10780;50.942;4.028;2023-06-14T10:44:45;27.00;99.90
21244;DHT22;10780;50.942;4.028;2023-06-14T10:47:21;27.00;99.90
21244;DHT22;10780;50.942;4.028;2023-06-14T10:50:03;27.10;99.80
21244;DHT22;10780;50.942;4.028;2023-06-14T10:52:31;27.30;99.30
21244;DHT22;10780;50.942;4.028;2023-06-14T10:57:53;27.50;99.30
21244;DHT22;10780;50.942;4.028;2023-06-14T11:00:21;27.50;98.40
21244;DHT22;10780;50.942;4.028;2023-06-14T11:05:55;27.20;98.30
21244;DHT22;10780;50.942;4.028;2023-06-14T11:11:13;27.50;97.40
21244;DHT22;10780;50.942;4.028;2023-06-14T11:13:41;27.70;96.80
21244;DHT22;10780;50.942;4.028;2023-06-14T11:16:17;27.90;96.50
21244;DHT22;10780;50.942;4.028;2023-06-14T11:18:46;27.80;96.20
21244;DHT22;10780;50.942;4.028;2023-06-14T11:21:16;27.70;94.90
21244;DHT22;10780;50.942;4.028;2023-06-14T11:23:43;27.80;95.10
21244;DHT22;10780;50.942;4.028;2023-06-14T11:26:13;27.90;95.20
21244;DHT22;10780;50.942;4.028;2023-06-14T11:28:40;28.00;95.20
21244;DHT22;10780;50.942;4.028;2023-06-14T11:31:06;27.90;95.00
21244;DHT22;10780;50.942;4.028;2023-06-14T11:33:33;28.00;94.50
21244;DHT22;10780;50.942;4.028;2023-06-14T11:36:02;28.20;94.00
21244;DHT22;10780;50.942;4.028;2023-06-14T11:38:28;28.20;93.70
21244;DHT22;10780;50.942;4.028;2023-06-14T11:40:58;28.20;93.20
21244;DHT22;10780;50.942;4.028;2023-06-14T11:43:25;28.30;93.20
21244;DHT22;10780;50.942;4.028;2023-06-14T11:45:52;28.00;91.60
21244;DHT22;10780;50.942;4.028;2023-06-14T11:48:18;27.70;92.00
21244;DHT22;10780;50.942;4.028;2023-06-14T11:50:44;27.50;92.20
21244;DHT22;10780;50.942;4.028;2023-06-14T11:53:10;27.50;92.00
21244;DHT22;10780;50.942;4.028;2023-06-14T11:55:37;27.40;92.30
21244;DHT22;10780;50.942;4.028;2023-06-14T11:58:04;27.30;92.80
21244;DHT22;10780;50.942;4.028;2023-06-14T12:00:30;27.30;93.10
21244;DHT22;10780;50.942;4.028;2023-06-14T12:02:56;27.60;93.00
21244;DHT22;10780;50.942;4.028;2023-06-14T12:05:23;27.80;92.20
21244;DHT22;10780;50.942;4.028;2023-06-14T12:07:49;27.90;91.60
21244;DHT22;10780;50.942;4.028;2023-06-14T12:10:16;28.00;90.90
21244;DHT22;10780;50.942;4.028;2023-06-14T12:12:42;27.90;90.70
21244;DHT22;10780;50.942;4.028;2023-06-14T12:15:09;27.80;90.50
21244;DHT22;10780;50.942;4.028;2023-06-14T12:17:35;27.80;91.20
21244;DHT22;10780;50.942;4.028;2023-06-14T12:20:06;28.10;91.10
21244;DHT22;10780;50.942;4.028;2023-06-14T12:22:36;28.30;89.90
21244;DHT22;10780;50.942;4.028;2023-06-14T12:25:02;28.30;88.50
21244;DHT22;10780;50.942;4.028;2023-06-14T12:27:28;28.10;88.30
21244;DHT22;10780;50.942;4.028;2023-06-14T12:30:01;28.00;88.40
21244;DHT22;10780;50.942;4.028;2023-06-14T12:32:28;27.90;87.70
21244;DHT22;10780;50.942;4.028;2023-06-14T12:34:54;28.00;85.70
21244;DHT22;10780;50.942;4.028;2023-06-14T12:37:19;28.10;86.00
21244;DHT22;10780;50.942;4.028;2023-06-14T12:39:45;28.30;85.80
21244;DHT22;10780;50.942;4.028;2023-06-14T12:42:11;28.60;86.20
21244;DHT22;10780;50.942;4.028;2023-06-14T12:44:39;28.50;85.00
21244;DHT22;10780;50.942;4.028;2023-06-14T12:47:06;28.40;85.00
21244;DHT22;10780;50.942;4.028;2023-06-14T12:49:33;28.50;83.90
21244;DHT22;10780;50.942;4.028;2023-06-14T12:51:58;28.30;84.20
21244;DHT22;10780;50.942;4.028;2023-06-14T12:54:24;28.30;85.70
21244;DHT22;10780;50.942;4.028;2023-06-14T12:56:53;28.50;86.10
21244;DHT22;10780;50.942;4.028;2023-06-14T12:59:20;28.50;85.60
21244;DHT22;10780;50.942;4.028;2023-06-14T13:01:45;28.50;85.80
21244;DHT22;10780;50.942;4.028;2023-06-14T13:04:12;28.60;85.60
21244;DHT22;10780;50.942;4.028;2023-06-14T13:06:38;28.70;85.00
21244;DHT22;10780;50.942;4.028;2023-06-14T13:09:05;28.80;83.80
21244;DHT22;10780;50.942;4.028;2023-06-14T13:11:31;28.80;83.80
21244;DHT22;10780;50.942;4.028;2023-06-14T13:13:56;29.00;83.60
21244;DHT22;10780;50.942;4.028;2023-06-14T13:16:22;29.00;83.20
21244;DHT22;10780;50.942;4.028;2023-06-14T13:18:47;28.90;82.90
21244;DHT22;10780;50.942;4.028;2023-06-14T13:21:13;29.00;83.20
21244;DHT22;10780;50.942;4.028;2023-06-14T13:23:39;29.10;82.70
21244;DHT22;10780;50.942;4.028;2023-06-14T13:26:04;29.00;82.10
21244;DHT22;10780;50.942;4.028;2023-06-14T13:28:30;28.90;81.30
21244;DHT22;10780;50.942;4.028;2023-06-14T13:30:57;29.10;81.60
21244;DHT22;10780;50.942;4.028;2023-06-14T13:33:22;28.90;82.90
21244;DHT22;10780;50.942;4.028;2023-06-14T13:35:49;28.90;83.40
21244;DHT22;10780;50.942;4.028;2023-06-14T13:38:15;28.90;81.40
21244;DHT22;10780;50.942;4.028;2023-06-14T13:40:41;28.90;81.20
21244;DHT22;10780;50.942;4.028;2023-06-14T13:43:06;28.80;80.20
21244;DHT22;10780;50.942;4.028;2023-06-14T13:45:32;28.80;80.30
21244;DHT22;10780;50.942;4.028;2023-06-14T13:47:57;28.70;79.70
21244;DHT22;10780;50.942;4.028;2023-06-14T13:50:23;28.70;79.20
21244;DHT22;10780;50.942;4.028;2023-06-14T13:52:49;28.60;81.10
21244;DHT22;10780;50.942;4.028;2023-06-14T13:55:14;28.60;80.20
21244;DHT22;10780;50.942;4.028;2023-06-14T13:57:40;28.70;80.50
21244;DHT22;10780;50.942;4.028;2023-06-14T14:00:06;29.00;78.80
21244;DHT22;10780;50.942;4.028;2023-06-14T14:02:34;29.20;78.40
21244;DHT22;10780;50.942;4.028;2023-06-14T14:04:59;29.50;78.10
21244;DHT22;10780;50.942;4.028;2023-06-14T14:07:25;29.90;78.80
21244;DHT22;10780;50.942;4.028;2023-06-14T14:09:51;30.20;77.30
21244;DHT22;10780;50.942;4.028;2023-06-14T14:12:16;30.30;76.70
21244;DHT22;10780;50.942;4.028;2023-06-14T14:14:42;30.80;75.90
21244;DHT22;10780;50.942;4.028;2023-06-14T14:17:08;31.60;75.60
21244;DHT22;10780;50.942;4.028;2023-06-14T14:19:33;32.40;73.70
21244;DHT22;10780;50.942;4.028;2023-06-14T14:21:59;33.90;71.40
21244;DHT22;10780;50.942;4.028;2023-06-14T14:24:24;35.00;68.40
21244;DHT22;10780;50.942;4.028;2023-06-14T14:26:51;34.80;65.80
21244;DHT22;10780;50.942;4.028;2023-06-14T14:29:19;34.80;64.40
21244;DHT22;10780;50.942;4.028;2023-06-14T14:31:45;34.20;63.70
21244;DHT22;10780;50.942;4.028;2023-06-14T14:34:11;34.90;62.70
21244;DHT22;10780;50.942;4.028;2023-06-14T14:36:36;34.90;62.50
21244;DHT22;10780;50.942;4.028;2023-06-14T14:39:04;35.70;60.90
21244;DHT22;10780;50.942;4.028;2023-06-14T14:41:29;36.60;57.80
21244;DHT22;10780;50.942;4.028;2023-06-14T14:43:55;36.30;56.50
21244;DHT22;10780;50.942;4.028;2023-06-14T14:46:21;37.00;55.40
21244;DHT22;10780;50.942;4.028;2023-06-14T14:48:46;35.60;55.60
21244;DHT22;10780;50.942;4.028;2023-06-14T14:51:12;35.30;55.10
21244;DHT22;10780;50.942;4.028;2023-06-14T14:53:38;35.60;54.60
21244;DHT22;10780;50.942;4.028;2023-06-14T14:56:03;35.70;54.50
21244;DHT22;10780;50.942;4.028;2023-06-14T14:58:29;36.70;52.80
21244;DHT22;10780;50.942;4.028;2023-06-14T15:00:55;36.30;52.20
21244;DHT22;10780;50.942;4.028;2023-06-14T15:03:21;36.20;52.00
21244;DHT22;10780;50.942;4.028;2023-06-14T15:05:47;36.10;51.80
21244;DHT22;10780;50.942;4.028;2023-06-14T15:08:12;36.20;52.00
21244;DHT22;10780;50.942;4.028;2023-06-14T15:10:41;36.10;51.90
21244;DHT22;10780;50.942;4.028;2023-06-14T15:13:07;37.00;50.80
21244;DHT22;10780;50.942;4.028;2023-06-14T15:15:34;37.40;49.80
21244;DHT22;10780;50.942;4.028;2023-06-14T15:17:59;37.30;48.50
21244;DHT22;10780;50.942;4.028;2023-06-14T15:20:26;36.50;48.60
21244;DHT22;10780;50.942;4.028;2023-06-14T15:22:51;36.30;48.60
21244;DHT22;10780;50.942;4.028;2023-06-14T15:25:18;35.80;49.00
21244;DHT22;10780;50.942;4.028;2023-06-14T15:27:44;35.80;49.10
21244;DHT22;10780;50.942;4.028;2023-06-14T15:30:10;36.60;48.10
21244;DHT22;10780;50.942;4.028;2023-06-14T15:32:36;36.80;47.60
21244;DHT22;10780;50.942;4.028;2023-06-14T15:35:02;37.10;47.20
21244;DHT22;10780;50.942;4.028;2023-06-14T15:37:27;37.10;47.10
21244;DHT22;10780;50.942;4.028;2023-06-14T15:39:53;37.30;46.70
21244;DHT22;10780;50.942;4.028;2023-06-14T15:42:18;37.50;46.70
21244;DHT22;10780;50.942;4.028;2023-06-14T15:44:44;38.10;46.30
21244;DHT22;10780;50.942;4.028;2023-06-14T15:47:11;37.00;45.50
21244;DHT22;10780;50.942;4.028;2023-06-14T15:49:37;35.80;46.40